createdAt,value
2019-04-03T00:01:08.644Z,99895.97
2019-04-03T00:03:34.603Z,99898.94
2019-04-03T00:06:00.445Z,99902.59
2019-04-03T00:08:26.330Z,99897.89
2019-04-03T00:10:52.170Z,99895.35
2019-04-03T00:13:18.441Z,99898.66
2019-04-03T00:15:44.633Z,99909.95
2019-04-03T00:18:11.502Z,99908.21
2019-04-03T00:20:37.689Z,99911.97
2019-04-03T00:23:03.529Z,99924.35
2019-04-03T00:25:29.591Z,99919.39
2019-04-03T00:27:55.795Z,99915.71
2019-04-03T00:30:22.515Z,99918.05
2019-04-03T00:32:48.622Z,99911.67
2019-04-03T00:35:14.931Z,99917.08
2019-04-03T00:37:40.751Z,99909.99
2019-04-03T00:40:07.478Z,99904.97
2019-04-03T00:42:33.285Z,99899.38
2019-04-03T00:44:59.100Z,99905.84
2019-04-03T00:47:25.762Z,99901.71
2019-04-03T00:49:51.655Z,99893.87
2019-04-03T00:52:17.483Z,99897.91
2019-04-03T00:54:43.358Z,99891.96
2019-04-03T00:57:09.176Z,99903.17
2019-04-03T00:59:35.097Z,99910.44
2019-04-03T01:02:01.020Z,99915.77
2019-04-03T01:04:28.803Z,99909.22
2019-04-03T01:06:54.331Z,99911.38
2019-04-03T01:09:20.200Z,99910.50
2019-04-03T01:11:46.030Z,99908.09
2019-04-03T01:14:11.996Z,99912.38
2019-04-03T01:16:38.054Z,99911.34
2019-04-03T01:19:05.767Z,99900.24
2019-04-03T01:21:31.418Z,99901.48
2019-04-03T01:23:57.225Z,99904.58
2019-04-03T01:26:23.036Z,99904.03
2019-04-03T01:28:48.928Z,99904.95
2019-04-03T01:31:15.166Z,99907.40
2019-04-03T01:33:41.100Z,99900.61
2019-04-03T01:36:07.096Z,99901.47
2019-04-03T01:38:32.939Z,99902.58
2019-04-03T01:40:58.815Z,99903.53
2019-04-03T01:43:24.631Z,99900.25
2019-04-03T01:45:50.637Z,99897.05
2019-04-03T01:48:16.500Z,99900.13
2019-04-03T01:50:42.395Z,99898.32
2019-04-03T01:53:08.179Z,99899.38
2019-04-03T01:55:34.726Z,99894.39
2019-04-03T01:58:00.980Z,99897.14
2019-04-03T02:00:27.188Z,99897.45
2019-04-03T02:02:53.254Z,99895.43
2019-04-03T02:05:19.145Z,99895.94
2019-04-03T02:07:45.158Z,99889.09
2019-04-03T02:10:18.275Z,99890.48
2019-04-03T02:12:44.304Z,99881.47
2019-04-03T02:15:10.354Z,99875.02
2019-04-03T02:17:37.683Z,99872.92
2019-04-03T02:20:03.833Z,99894.81
2019-04-03T02:22:30.094Z,99897.91
2019-04-03T02:24:56.143Z,99896.20
2019-04-03T02:27:22.054Z,99887.34
2019-04-03T02:29:48.551Z,99886.77
2019-04-03T02:32:14.427Z,99880.48
2019-04-03T02:34:40.215Z,99885.34
2019-04-03T02:37:06.081Z,99899.72
2019-04-03T02:39:32.150Z,99907.55
2019-04-03T02:41:58.516Z,99896.34
2019-04-03T02:44:24.374Z,99891.34
2019-04-03T02:46:50.193Z,99887.31
2019-04-03T02:49:16.201Z,99875.59
2019-04-03T02:51:44.019Z,99870.31
2019-04-03T02:54:27.396Z,99880.98
2019-04-03T02:56:53.610Z,99875.25
2019-04-03T02:59:19.915Z,99876.36
2019-04-03T03:01:46.054Z,99869.35
2019-04-03T03:04:12.385Z,99879.31
2019-04-03T03:06:38.192Z,99876.23
2019-04-03T03:09:05.950Z,99880.13
2019-04-03T03:11:31.945Z,99883.95
2019-04-03T03:13:58.309Z,99883.11
2019-04-03T03:16:26.938Z,99884.88
2019-04-03T03:18:53.148Z,99883.11
2019-04-03T03:21:20.905Z,99886.70
2019-04-03T03:23:46.859Z,99877.81
2019-04-03T03:26:13.359Z,99873.55
2019-04-03T03:28:39.477Z,99871.87
2019-04-03T03:31:07.592Z,99880.88
2019-04-03T03:33:39.641Z,99876.66
2019-04-03T03:36:05.773Z,99873.48
2019-04-03T03:38:32.338Z,99871.99
2019-04-03T03:40:58.809Z,99869.12
2019-04-03T03:43:25.938Z,99867.11
2019-04-03T03:46:01.196Z,99864.06
2019-04-03T03:48:29.109Z,99865.54
2019-04-03T03:50:57.224Z,99866.61
2019-04-03T03:53:23.593Z,99863.74
2019-04-03T03:55:56.852Z,99863.02
2019-04-03T03:58:22.294Z,99864.37
2019-04-03T04:00:52.247Z,99857.81
2019-04-03T04:03:17.678Z,99858.42
2019-04-03T04:05:43.994Z,99867.66
2019-04-03T04:08:11.517Z,99863.63
2019-04-03T04:10:40.155Z,99861.84
2019-04-03T04:13:06.936Z,99856.77
2019-04-03T04:15:33.623Z,99860.98
2019-04-03T04:17:59.527Z,99861.94
2019-04-03T04:20:25.625Z,99863.11
2019-04-03T04:22:52.084Z,99865.23
2019-04-03T04:25:18.036Z,99865.02
2019-04-03T04:27:43.887Z,99859.60
2019-04-03T04:30:11.995Z,99855.48
2019-04-03T04:32:46.075Z,99856.03
2019-04-03T04:35:11.713Z,99855.06
2019-04-03T04:37:40.162Z,99855.58
2019-04-03T04:40:07.169Z,99846.48
2019-04-03T04:42:34.798Z,99847.86
2019-04-03T04:45:01.624Z,99845.53
2019-04-03T04:47:27.914Z,99841.20
2019-04-03T04:49:54.309Z,99848.73
2019-04-03T04:52:20.326Z,99843.11
2019-04-03T04:54:46.668Z,99839.95
2019-04-03T04:57:13.028Z,99843.52
2019-04-03T04:59:39.070Z,99845.11
2019-04-03T05:02:05.049Z,99845.44
2019-04-03T05:04:30.850Z,99836.86
2019-04-03T05:06:59.689Z,99840.57
2019-04-03T05:09:24.450Z,99835.91
2019-04-03T05:11:50.387Z,99837.94
2019-04-03T05:14:18.030Z,99840.36
2019-04-03T05:16:44.034Z,99833.28
2019-04-03T05:19:15.867Z,99836.78
2019-04-03T05:21:37.888Z,99842.70
2019-04-03T05:24:11.484Z,99843.32
2019-04-03T05:26:32.213Z,99841.20
2019-04-03T05:28:58.954Z,99841.95
2019-04-03T05:31:24.746Z,99850.20
2019-04-03T05:33:50.582Z,99850.20
2019-04-03T05:36:17.758Z,99848.37
2019-04-03T05:38:44.019Z,99844.38
2019-04-03T05:41:10.163Z,99842.80
2019-04-03T05:43:36.360Z,99846.83
2019-04-03T05:46:02.290Z,99854.12
2019-04-03T05:48:29.090Z,99852.33
2019-04-03T05:50:57.647Z,99859.91
2019-04-03T05:53:22.692Z,99853.46
2019-04-03T05:55:48.540Z,99863.08
2019-04-03T05:58:16.289Z,99859.99
2019-04-03T06:00:42.670Z,99857.36
2019-04-03T06:03:08.527Z,99867.86
2019-04-03T06:05:34.472Z,99871.98
2019-04-03T06:08:00.585Z,99864.03
2019-04-03T06:10:28.179Z,99873.66
2019-04-03T06:12:54.069Z,99867.73
2019-04-03T06:15:21.694Z,99867.31
2019-04-03T06:17:50.151Z,99865.40
2019-04-03T06:20:15.174Z,99870.57
2019-04-03T06:22:41.054Z,99878.50
2019-04-03T06:25:10.382Z,99868.98
2019-04-03T06:27:34.998Z,99871.66
2019-04-03T06:30:00.905Z,99871.11
2019-04-03T06:32:29.011Z,99871.23
2019-04-03T06:34:54.586Z,99864.78
2019-04-03T06:37:22.250Z,99868.44
2019-04-03T06:39:47.956Z,99868.69
2019-04-03T06:42:14.056Z,99872.56
2019-04-03T06:44:40.414Z,99877.22
2019-04-03T06:47:06.314Z,99874.86
2019-04-03T06:49:32.355Z,99870.67
2019-04-03T06:51:58.225Z,99868.34
2019-04-03T06:54:24.510Z,99867.27
2019-04-03T06:56:52.146Z,99868.97
2019-04-03T06:59:18.407Z,99869.89
2019-04-03T07:01:44.392Z,99868.32
2019-04-03T07:04:10.262Z,99867.81
2019-04-03T07:06:36.560Z,99867.27
2019-04-03T07:09:04.857Z,99865.90
2019-04-03T07:11:29.940Z,99876.06
2019-04-03T07:13:55.890Z,99873.21
2019-04-03T07:16:21.797Z,99878.00
2019-04-03T07:18:47.906Z,99880.89
2019-04-03T07:21:13.795Z,99874.34
2019-04-03T07:23:39.664Z,99871.30
2019-04-03T07:26:05.644Z,99879.47
2019-04-03T07:28:31.575Z,99883.19
2019-04-03T07:30:57.383Z,99878.23
2019-04-03T07:33:23.316Z,99875.10
2019-04-03T07:35:49.289Z,99874.70
2019-04-03T07:38:15.093Z,99867.38
2019-04-03T07:40:40.898Z,99852.55
2019-04-03T07:43:06.764Z,99848.55
2019-04-03T07:45:32.964Z,99848.37
2019-04-03T07:47:59.332Z,99839.08
2019-04-03T07:50:25.184Z,99844.59
2019-04-03T07:52:51.114Z,99846.91
2019-04-03T07:55:18.117Z,99855.16
2019-04-03T07:57:44.278Z,99867.62
2019-04-03T08:00:12.307Z,99868.28
2019-04-03T08:02:38.155Z,99865.12
2019-04-03T08:05:05.459Z,99867.23
2019-04-03T08:07:31.600Z,99877.48
2019-04-03T08:09:58.605Z,99873.37
2019-04-03T08:12:25.172Z,99886.16
2019-04-03T08:14:51.181Z,99885.52
2019-04-03T08:17:19.050Z,99889.94
2019-04-03T08:19:45.437Z,99884.86
2019-04-03T08:22:11.938Z,99889.11
2019-04-03T08:24:39.231Z,99882.53
2019-04-03T08:27:07.863Z,99870.66
2019-04-03T08:29:34.719Z,99867.52
2019-04-03T08:32:00.489Z,99857.70
2019-04-03T08:34:26.660Z,99857.15
2019-04-03T08:36:52.609Z,99861.36
2019-04-03T08:39:18.426Z,99863.59
2019-04-03T08:41:44.249Z,99860.30
2019-04-03T08:44:10.320Z,99858.39
2019-04-03T08:46:36.377Z,99862.23
2019-04-03T08:49:02.157Z,99855.35
2019-04-03T08:51:28.000Z,99862.84
2019-04-03T08:53:54.855Z,99878.91
2019-04-03T08:56:20.826Z,99877.14
2019-04-03T08:58:46.653Z,99880.72
2019-04-03T09:01:12.562Z,99881.36
2019-04-03T09:03:38.618Z,99876.93
2019-04-03T09:06:04.701Z,99875.97
2019-04-03T09:08:30.528Z,99878.11
2019-04-03T09:10:56.890Z,99874.27
2019-04-03T09:13:24.062Z,99878.73
2019-04-03T09:15:50.114Z,99877.36
2019-04-03T09:18:16.239Z,99878.86
2019-04-03T09:20:43.379Z,99881.41
2019-04-03T09:23:09.924Z,99882.12
2019-04-03T09:25:35.880Z,99884.36
2019-04-03T09:28:01.847Z,99891.44
2019-04-03T09:30:27.958Z,99891.03
2019-04-03T09:32:54.471Z,99896.41
2019-04-03T09:35:20.287Z,99894.08
2019-04-03T09:37:46.635Z,99889.95
2019-04-03T09:40:16.635Z,99887.19
2019-04-03T09:42:41.352Z,99888.34
2019-04-03T09:45:08.400Z,99886.30
2019-04-03T09:47:34.964Z,99884.48
2019-04-03T09:50:01.104Z,99880.15
2019-04-03T09:52:37.893Z,99870.02
2019-04-03T09:54:54.595Z,99866.63
2019-04-03T09:57:20.973Z,99866.03
2019-04-03T09:59:46.826Z,99868.48
2019-04-03T10:02:12.621Z,99863.61
2019-04-03T10:04:38.719Z,99853.94
2019-04-03T10:07:05.072Z,99848.70
2019-04-03T10:09:30.993Z,99842.80
2019-04-03T10:11:56.836Z,99835.30
2019-04-03T10:14:22.980Z,99832.95
2019-04-03T10:16:48.883Z,99842.47
2019-04-03T10:19:14.784Z,99832.01
2019-04-03T10:21:41.034Z,99831.80
2019-04-03T10:24:06.997Z,99832.01
2019-04-03T10:26:32.810Z,99842.38
2019-04-03T10:28:58.631Z,99847.13
2019-04-03T10:31:24.858Z,99849.13
2019-04-03T10:33:50.788Z,99842.78
2019-04-03T10:36:18.279Z,99839.83
2019-04-03T10:38:44.853Z,99845.88
2019-04-03T10:41:14.018Z,99846.17
2019-04-03T10:43:39.899Z,99848.83
2019-04-03T10:46:05.806Z,99855.61
2019-04-03T10:48:32.136Z,99849.88
2019-04-03T10:50:57.955Z,99840.45
2019-04-03T10:53:23.983Z,99830.74
2019-04-03T10:55:50.164Z,99826.30
2019-04-03T10:58:15.959Z,99818.25
2019-04-03T11:00:41.759Z,99820.98
2019-04-03T11:03:07.564Z,99815.08
2019-04-03T11:05:33.749Z,99814.97
2019-04-03T11:07:59.726Z,99819.94
2019-04-03T11:10:25.685Z,99820.69
2019-04-03T11:12:51.929Z,99809.36
2019-04-03T11:15:18.679Z,99807.05
2019-04-03T11:17:44.459Z,99791.80
2019-04-03T11:20:11.259Z,99793.79
2019-04-03T11:22:42.099Z,99799.60
2019-04-03T11:25:05.382Z,99791.36
2019-04-03T11:27:42.188Z,99789.66
2019-04-03T11:29:58.775Z,99798.14
2019-04-03T11:32:24.980Z,99798.20
2019-04-03T11:34:53.357Z,99801.92
2019-04-03T11:37:21.826Z,99789.95
2019-04-03T11:39:47.633Z,99791.73
2019-04-03T11:42:22.835Z,99775.77
2019-04-03T11:44:40.968Z,99769.83
2019-04-03T11:47:06.831Z,99766.09
2019-04-03T11:49:32.663Z,99757.91
2019-04-03T11:52:01.130Z,99748.42
2019-04-03T11:54:26.430Z,99735.78
2019-04-03T11:56:52.366Z,99739.95
2019-04-03T11:59:23.361Z,99739.66
2019-04-03T12:01:45.710Z,99749.52
2019-04-03T12:04:12.721Z,99750.05
2019-04-03T12:06:43.573Z,99749.66
2019-04-03T12:09:10.180Z,99748.92
2019-04-03T12:11:38.380Z,99753.13
2019-04-03T12:14:03.870Z,99758.27
2019-04-03T12:16:30.616Z,99761.97
2019-04-03T12:18:56.587Z,99754.33
2019-04-03T12:21:24.503Z,99750.99
2019-04-03T12:23:50.744Z,99751.11
2019-04-03T12:26:19.683Z,99760.33
2019-04-03T12:28:44.400Z,99755.63
2019-04-03T12:31:10.696Z,99748.84
2019-04-03T12:33:36.786Z,99745.87
2019-04-03T12:36:02.891Z,99746.70
2019-04-03T12:38:28.931Z,99755.88
2019-04-03T12:40:54.787Z,99761.31
2019-04-03T12:43:20.852Z,99761.48
2019-04-03T12:45:47.284Z,99755.36
2019-04-03T12:48:13.209Z,99747.25
2019-04-03T12:50:39.213Z,99745.12
2019-04-03T12:53:05.097Z,99738.67
2019-04-03T12:55:31.345Z,99732.29
2019-04-03T12:57:57.168Z,99726.93
2019-04-03T13:00:24.708Z,99735.53
2019-04-03T13:02:52.436Z,99736.19
2019-04-03T13:05:18.748Z,99726.89
2019-04-03T13:07:46.851Z,99707.05
2019-04-03T13:10:13.201Z,99692.78
2019-04-03T13:12:39.367Z,99692.12
2019-04-03T13:15:06.919Z,99668.84
2019-04-03T13:17:32.857Z,99651.31
2019-04-03T13:20:03.231Z,99652.30
2019-04-03T13:22:26.636Z,99666.76
2019-04-03T13:24:53.132Z,99673.89
2019-04-03T13:27:19.137Z,99667.07
2019-04-03T13:29:45.708Z,99677.65
2019-04-03T13:32:16.222Z,99672.56
2019-04-03T13:34:43.042Z,99678.78
2019-04-03T13:37:10.106Z,99679.68
2019-04-03T13:39:36.102Z,99673.97
2019-04-03T13:42:02.426Z,99676.65
2019-04-03T13:44:28.497Z,99678.11
2019-04-03T13:46:54.548Z,99661.17
2019-04-03T13:49:21.761Z,99638.69
2019-04-03T13:51:48.029Z,99629.39
2019-04-03T13:54:20.585Z,99637.23
2019-04-03T13:56:46.860Z,99629.09
2019-04-03T13:59:15.094Z,99628.16
2019-04-03T14:01:41.791Z,99641.88
2019-04-03T14:04:22.910Z,99648.41
2019-04-03T14:06:49.494Z,99648.26
2019-04-03T14:09:17.583Z,99656.36
2019-04-03T14:11:43.556Z,99656.36
2019-04-03T14:14:09.908Z,99654.38
2019-04-03T14:16:36.978Z,99656.56
2019-04-03T14:19:02.901Z,99654.96
2019-04-03T14:21:29.337Z,99661.27
2019-04-03T14:23:55.480Z,99666.86
2019-04-03T14:26:21.603Z,99661.38
2019-04-03T14:28:47.516Z,99648.30
2019-04-03T14:31:16.669Z,99651.57
2019-04-03T14:33:45.131Z,99644.91
2019-04-03T14:36:27.475Z,99649.90
2019-04-03T14:38:54.790Z,99653.97
2019-04-03T14:41:21.190Z,99649.90
2019-04-03T14:43:49.351Z,99646.30
2019-04-03T14:46:17.950Z,99642.10
2019-04-03T14:48:45.087Z,99644.77
2019-04-03T14:51:12.224Z,99645.31
2019-04-03T14:53:38.317Z,99643.87
2019-04-03T14:56:04.321Z,99637.81
2019-04-03T14:58:30.641Z,99636.45
2019-04-03T15:00:57.493Z,99639.41
2019-04-03T15:03:24.211Z,99639.50
2019-04-03T15:05:53.443Z,99633.98
2019-04-03T15:08:22.793Z,99625.13
2019-04-03T15:10:50.246Z,99612.83
2019-04-03T15:13:16.911Z,99605.79
2019-04-03T15:15:43.449Z,99612.05
2019-04-03T15:18:10.571Z,99608.02
2019-04-03T15:20:40.570Z,99602.88
2019-04-03T15:23:12.062Z,99596.91
2019-04-03T15:25:38.455Z,99589.40
2019-04-03T15:28:04.924Z,99600.75
2019-04-03T15:30:30.810Z,99624.56
2019-04-03T15:32:57.117Z,99629.94
2019-04-03T15:35:23.451Z,99629.71
2019-04-03T15:37:49.302Z,99640.72
2019-04-03T15:40:16.194Z,99639.87
2019-04-03T15:42:42.178Z,99631.98
2019-04-03T15:45:10.635Z,99637.43
2019-04-03T15:47:56.824Z,99635.13
2019-04-03T15:50:21.351Z,99626.02
2019-04-03T15:52:49.387Z,99625.08
2019-04-03T15:55:15.318Z,99623.95
2019-04-03T15:57:41.449Z,99624.95
2019-04-03T16:00:11.046Z,99620.80
2019-04-03T16:02:37.082Z,99626.87
2019-04-03T16:05:02.974Z,99624.00
2019-04-03T16:07:28.831Z,99622.11
2019-04-03T16:09:55.019Z,99625.70
2019-04-03T16:12:21.269Z,99628.01
2019-04-03T16:14:48.843Z,99626.52
2019-04-03T16:17:14.912Z,99621.16
2019-04-03T16:19:43.269Z,99620.14
2019-04-03T16:22:08.330Z,99618.63
2019-04-03T16:24:34.702Z,99621.70
2019-04-03T16:27:00.776Z,99615.97
2019-04-03T16:29:27.294Z,99608.31
2019-04-03T16:31:55.267Z,99594.12
2019-04-03T16:34:21.866Z,99590.30
2019-04-03T16:36:49.715Z,99588.70
2019-04-03T16:39:17.496Z,99595.98
2019-04-03T16:41:45.226Z,99591.61
2019-04-03T16:44:14.337Z,99590.08
2019-04-03T16:46:41.601Z,99595.05
2019-04-03T16:49:08.927Z,99594.22
2019-04-03T16:51:34.909Z,99585.11
2019-04-03T16:54:00.981Z,99580.88
2019-04-03T16:56:27.000Z,99576.92
2019-04-03T16:58:53.422Z,99573.54
2019-04-03T17:01:19.589Z,99575.60
2019-04-03T17:03:48.251Z,99581.72
2019-04-03T17:06:16.290Z,99590.69
2019-04-03T17:08:43.150Z,99588.64
2019-04-03T17:11:09.874Z,99587.84
2019-04-03T17:13:37.364Z,99588.64
2019-04-03T17:16:04.919Z,99593.52
2019-04-03T17:18:32.026Z,99597.23
2019-04-03T17:20:58.435Z,99593.42
2019-04-03T17:23:27.790Z,99590.50
2019-04-03T17:25:55.193Z,99604.63
2019-04-03T17:28:21.439Z,99605.59
2019-04-03T17:30:49.881Z,99617.63
2019-04-03T17:33:22.174Z,99603.06
2019-04-03T17:35:48.641Z,99591.02
2019-04-03T17:38:14.833Z,99590.34
2019-04-03T17:40:44.511Z,99593.87
2019-04-03T17:43:16.846Z,99601.97
2019-04-03T17:45:46.463Z,99604.82
2019-04-03T17:48:26.020Z,99587.94
2019-04-03T17:51:03.111Z,99593.61
2019-04-03T17:53:29.722Z,99591.63
2019-04-03T17:56:17.449Z,99590.59
2019-04-03T17:58:46.057Z,99579.84
2019-04-03T18:01:24.449Z,99578.20
2019-04-03T18:04:08.334Z,99582.87
2019-04-03T18:06:27.940Z,99597.74
2019-04-03T18:08:54.398Z,99593.52
2019-04-03T18:11:20.720Z,99616.64
2019-04-03T18:13:48.568Z,99618.78
2019-04-03T18:16:15.083Z,99613.56
2019-04-03T18:18:42.075Z,99614.02
2019-04-03T18:21:08.539Z,99627.44
2019-04-03T18:23:34.742Z,99622.00
2019-04-03T18:26:01.053Z,99601.56
2019-04-03T18:30:57.983Z,99609.39
2019-04-03T18:33:26.033Z,99599.80
2019-04-03T18:35:56.397Z,99609.09
2019-04-03T18:38:20.821Z,99611.04
2019-04-03T18:40:51.239Z,99617.59
2019-04-03T18:43:17.179Z,99619.45
2019-04-03T18:45:43.057Z,99625.73
2019-04-03T18:48:08.782Z,99626.27
2019-04-03T18:50:35.156Z,99630.84
2019-04-03T18:53:02.090Z,99627.28
2019-04-03T18:55:28.413Z,99619.39
2019-04-03T18:57:54.711Z,99627.60
2019-04-03T19:00:31.249Z,99628.44
2019-04-03T19:03:01.478Z,99637.96
2019-04-03T19:05:30.333Z,99639.28
2019-04-03T19:07:56.255Z,99638.45
2019-04-03T19:10:23.264Z,99644.07
2019-04-03T19:12:49.567Z,99645.45
2019-04-03T19:15:15.497Z,99649.06
2019-04-03T19:17:59.452Z,99657.11
2019-04-03T19:20:16.158Z,99657.22
2019-04-03T19:22:44.305Z,99665.39
2019-04-03T19:25:10.788Z,99665.22
2019-04-03T19:27:36.564Z,99668.67
2019-04-03T19:30:02.441Z,99673.41
2019-04-03T19:32:32.228Z,99669.73
2019-04-03T19:34:59.975Z,99674.25
2019-04-03T19:37:25.774Z,99663.02
2019-04-03T19:39:51.782Z,99661.58
2019-04-03T19:42:17.488Z,99661.80
2019-04-03T19:44:43.285Z,99659.39
2019-04-03T19:47:09.165Z,99654.92
2019-04-03T19:49:35.138Z,99656.23
2019-04-03T19:52:01.207Z,99654.26
2019-04-03T19:54:28.143Z,99648.13
2019-04-03T19:56:56.257Z,99661.84
2019-04-03T19:59:21.563Z,99669.75
2019-04-03T20:01:47.535Z,99677.33
2019-04-03T20:04:15.762Z,99685.00
2019-04-03T20:06:40.695Z,99692.64
2019-04-03T20:09:10.070Z,99691.48
2019-04-03T20:11:36.531Z,99686.81
2019-04-03T20:14:02.476Z,99683.23
2019-04-03T20:16:28.447Z,99691.55
2019-04-03T20:18:56.187Z,99685.73
2019-04-03T20:21:22.020Z,99678.41
2019-04-03T20:23:48.632Z,99672.98
2019-04-03T20:26:16.317Z,99663.64
2019-04-03T20:28:41.957Z,99655.09
2019-04-03T20:31:07.981Z,99647.09
2019-04-03T20:33:33.760Z,99641.16
2019-04-03T20:35:59.928Z,99642.50
2019-04-03T20:38:27.418Z,99642.28
2019-04-03T20:40:53.256Z,99648.21
2019-04-03T20:43:19.099Z,99644.20
2019-04-03T20:45:45.061Z,99651.23
2019-04-03T20:48:10.831Z,99648.63
2019-04-03T20:50:38.049Z,99647.78
2019-04-03T20:53:04.317Z,99656.14
2019-04-03T20:55:30.076Z,99656.66
2019-04-03T20:57:56.346Z,99665.75
2019-04-03T21:00:22.382Z,99662.16
2019-04-03T21:02:48.126Z,99661.73
2019-04-03T21:05:14.003Z,99662.70
2019-04-03T21:07:40.091Z,99672.47
2019-04-03T21:10:06.495Z,99668.75
2019-04-03T21:12:32.134Z,99646.39
2019-04-03T21:15:07.733Z,99641.34
2019-04-03T21:17:24.997Z,99625.95
2019-04-03T21:19:52.349Z,99628.64
2019-04-03T21:22:19.707Z,99628.85
2019-04-03T21:24:45.213Z,99615.50
2019-04-03T21:27:10.644Z,99601.74
2019-04-03T21:29:36.455Z,99599.53
2019-04-03T21:32:01.890Z,99603.56
2019-04-03T21:34:33.256Z,99588.38
2019-04-03T21:36:58.760Z,99582.72
2019-04-03T21:39:24.154Z,99593.27
2019-04-03T21:41:49.658Z,99615.83
2019-04-03T21:44:15.123Z,99623.64
2019-04-03T21:46:42.665Z,99613.07
2019-04-03T21:49:08.107Z,99610.98
2019-04-03T21:51:33.860Z,99625.38
2019-04-03T21:53:59.607Z,99631.80
2019-04-03T21:56:25.353Z,99622.70
2019-04-03T21:58:50.777Z,99616.30
2019-04-03T22:01:26.491Z,99617.75
2019-04-03T22:03:52.514Z,99612.28
2019-04-03T22:06:18.000Z,99601.34
2019-04-03T22:08:43.534Z,99591.83
2019-04-03T22:11:09.017Z,99610.38
2019-04-03T22:13:34.730Z,99619.11
2019-04-03T22:16:00.229Z,99626.28
2019-04-03T22:18:25.754Z,99627.12
2019-04-03T22:20:51.271Z,99635.44
2019-04-03T22:23:18.365Z,99640.41
2019-04-03T22:25:43.839Z,99651.41
2019-04-03T22:28:09.333Z,99665.08
2019-04-03T22:30:34.850Z,99660.55
2019-04-03T22:33:00.616Z,99662.56
2019-04-03T22:35:27.978Z,99662.14
2019-04-03T22:37:53.305Z,99648.19
2019-04-03T22:40:18.753Z,99637.78
2019-04-03T22:42:45.525Z,99630.80
2019-04-03T22:45:11.678Z,99616.01
2019-04-03T22:47:37.169Z,99621.48
2019-04-03T22:50:04.905Z,99638.06
2019-04-03T22:52:29.857Z,99648.70
2019-04-03T22:54:55.549Z,99654.02
2019-04-03T22:57:21.052Z,99653.27
2019-04-03T22:59:46.801Z,99662.64
2019-04-03T23:02:12.356Z,99681.84
2019-04-03T23:04:41.815Z,99684.50
2019-04-03T23:07:05.782Z,99670.33
2019-04-03T23:09:31.259Z,99668.02
2019-04-03T23:11:56.768Z,99658.65
2019-04-03T23:14:22.282Z,99656.87
2019-04-03T23:16:47.746Z,99657.59
2019-04-03T23:19:13.277Z,99654.31
2019-04-03T23:21:38.782Z,99643.15
2019-04-03T23:24:04.283Z,99627.63
2019-04-03T23:26:31.765Z,99628.78
2019-04-03T23:28:57.053Z,99621.16
2019-04-03T23:31:22.826Z,99607.16
2019-04-03T23:33:48.365Z,99611.95
2019-04-03T23:36:13.851Z,99595.75
2019-04-03T23:38:39.381Z,99586.03
2019-04-03T23:41:06.094Z,99591.30
2019-04-03T23:43:32.177Z,99587.03
2019-04-03T23:45:57.666Z,99585.98
2019-04-03T23:48:23.170Z,99590.44
2019-04-03T23:50:48.940Z,99593.64
2019-04-03T23:53:14.447Z,99577.02
2019-04-03T23:55:40.220Z,99553.40
2019-04-03T23:58:05.689Z,99564.27
